Time;durP1;ratioP1;P1;durP2;ratioP2;P2;SDS_P1;SDS_P2;PMS_P1;PMS_P2;Temp;Humidity;BMP_temperature;BMP_pressure;BME280_temperature;BME280_humidity;BME280_pressure;Samples;Min_cycle;Max_cycle;Signal;HPM_P1;HPM_P2
2023/01/08 00:01:42;;;;;;;23.33;14.03;;;;;;;1.32;93.68;101255.75;5011307;28;20473;-77
2023/01/08 00:04:08;;;;;;;32.13;15.43;;;;;;;1.23;94.22;101249.84;5011044;28;20087;-77
2023/01/08 00:06:34;;;;;;;30.33;15.80;;;;;;;0.92;94.43;101216.63;5011233;28;20025;-79
2023/01/08 00:08:59;;;;;;;22.33;13.87;;;;;;;1.06;94.71;101246.72;5009917;28;20468;-77
2023/01/08 00:11:24;;;;;;;25.63;14.10;;;;;;;0.93;94.61;101243.84;5010258;28;20477;-77
2023/01/08 00:13:50;;;;;;;24.77;13.67;;;;;;;0.88;95.34;101255.28;5010986;28;20045;-78
2023/01/08 00:16:17;;;;;;;26.60;14.07;;;;;;;0.84;95.76;101254.09;5011188;28;20029;-78
2023/01/08 00:18:43;;;;;;;23.20;12.77;;;;;;;0.82;95.79;101244.56;5009756;28;20036;-78
2023/01/08 00:21:09;;;;;;;28.47;12.70;;;;;;;0.83;94.52;101246.34;5011596;28;20026;-78
2023/01/08 00:23:35;;;;;;;21.50;11.53;;;;;;;0.81;93.27;101236.06;5010514;28;20034;-78
2023/01/08 00:26:03;;;;;;;20.43;11.10;;;;;;;0.78;92.71;101239.19;5009890;28;20061;-77
2023/01/08 00:28:29;;;;;;;19.90;10.60;;;;;;;0.77;92.32;101244.16;5010424;28;20026;-77
2023/01/08 00:30:54;;;;;;;19.97;9.97;;;;;;;0.60;92.68;101237.59;5010967;28;20100;-78
2023/01/08 00:33:20;;;;;;;18.67;8.67;;;;;;;0.57;92.63;101229.66;5008407;28;20142;-79
2023/01/08 00:35:46;;;;;;;21.33;10.37;;;;;;;0.69;92.58;101243.47;5009377;28;20045;-79
2023/01/08 00:38:11;;;;;;;17.70;10.00;;;;;;;0.74;92.20;101238.81;5008884;28;20535;-79
2023/01/08 00:40:37;;;;;;;21.10;10.47;;;;;;;0.58;93.03;101237.41;5009236;28;20636;-79
2023/01/08 00:43:03;;;;;;;18.17;10.33;;;;;;;0.58;94.10;101239.09;5008777;28;20038;-78
2023/01/08 00:45:29;;;;;;;16.37;9.23;;;;;;;0.50;94.21;101250.19;5008946;28;20405;-78
2023/01/08 00:47:54;;;;;;;17.07;8.53;;;;;;;0.45;93.83;101254.88;4992392;28;20431;-79
2023/01/08 00:50:20;;;;;;;17.37;9.40;;;;;;;0.47;94.04;101261.88;5008577;28;20069;-79
2023/01/08 00:52:45;;;;;;;20.30;9.80;;;;;;;0.60;94.20;101250.28;5008643;28;20053;-80
2023/01/08 00:55:10;;;;;;;22.10;9.30;;;;;;;0.69;93.71;101229.88;5008671;28;20057;-79
2023/01/08 00:57:38;;;;;;;19.10;9.97;;;;;;;0.90;93.12;101256.31;4991183;28;20046;-78
2023/01/08 01:00:05;;;;;;;22.23;9.93;;;;;;;1.03;93.29;101250.63;5008716;28;20120;-81
2023/01/08 01:02:31;;;;;;;20.87;9.77;;;;;;;0.79;92.11;101199.44;5008295;28;20132;-80
2023/01/08 01:04:56;;;;;;;16.67;10.33;;;;;;;0.89;91.00;101241.81;5004862;28;20038;-79
2023/01/08 01:07:22;;;;;;;15.17;10.40;;;;;;;0.70;91.85;101259.59;5009916;28;20603;-80
2023/01/08 01:09:47;;;;;;;22.60;12.30;;;;;;;0.09;96.83;101256.75;5009442;28;20034;-80
2023/01/08 01:12:13;;;;;;;23.47;12.60;;;;;;;-0.01;98.84;101265.16;5011094;28;20125;-80
2023/01/08 01:14:38;;;;;;;18.90;12.87;;;;;;;-0.19;100.00;101248.22;5010913;28;20033;-80
2023/01/08 01:17:04;;;;;;;22.33;13.30;;;;;;;-0.22;100.00;101261.53;5011072;28;20026;-82
2023/01/08 01:19:30;;;;;;;24.93;12.60;;;;;;;-0.34;100.00;101252.78;5009659;28;20125;-79
2023/01/08 01:21:55;;;;;;;26.03;13.67;;;;;;;-0.44;100.00;101251.03;5009740;28;20465;-78
2023/01/08 01:24:23;;;;;;;17.47;13.07;;;;;;;-0.42;100.00;101258.81;5009549;28;20041;-79
2023/01/08 01:26:50;;;;;;;19.63;13.33;;;;;;;-0.35;100.00;101262.06;5009286;28;20038;-79
2023/01/08 01:29:15;;;;;;;21.10;12.33;;;;;;;-0.30;100.00;101257.38;5009732;28;20065;-79
2023/01/08 01:31:41;;;;;;;20.33;12.33;;;;;;;-0.20;100.00;101247.34;5010522;28;20034;-79
2023/01/08 01:34:06;;;;;;;25.47;11.63;;;;;;;-0.09;100.00;101243.25;5010935;28;20037;-80
2023/01/08 01:36:31;;;;;;;18.57;10.83;;;;;;;0.03;100.00;101250.22;5010652;28;20477;-80
2023/01/08 01:38:57;;;;;;;16.63;10.93;;;;;;;-0.01;98.56;101239.78;5009046;28;20030;-80
2023/01/08 01:41:27;;;;;;;19.10;10.37;;;;;;;0.19;98.29;101257.56;5009396;28;20104;-81
2023/01/08 01:43:55;;;;;;;16.70;10.63;;;;;;;0.03;97.25;101240.06;5010697;28;20029;-79
2023/01/08 01:46:38;;;;;;;18.40;9.87;;;;;;;-0.14;97.07;101256.28;5010482;28;20484;-79
2023/01/08 01:49:21;;;;;;;20.73;12.17;;;;;;;-0.14;98.04;101243.59;5011088;28;20029;-79
2023/01/08 01:51:52;;;;;;;15.97;9.87;;;;;;;0.01;98.38;101246.66;5010682;28;20022;-78
2023/01/08 01:54:18;;;;;;;17.73;9.80;;;;;;;-0.05;98.34;101222.50;5010692;28;20030;-79
2023/01/08 01:56:45;;;;;;;21.70;10.80;;;;;;;-0.10;97.43;101197.44;5010298;28;20108;-77
2023/01/08 01:59:12;;;;;;;17.10;9.33;;;;;;;0.22;97.29;101248.59;5010556;28;20100;-79
2023/01/08 02:01:39;;;;;;;21.43;10.87;;;;;;;0.03;97.64;101213.03;5010667;28;20034;-79
2023/01/08 02:04:05;;;;;;;15.10;9.47;;;;;;;0.29;97.55;101247.53;5010529;28;20515;-79
2023/01/08 02:07:14;;;;;;;20.83;10.27;;;;;;;0.38;96.62;101243.25;5010681;28;20069;-79
2023/01/08 02:10:08;;;;;;;19.10;10.27;;;;;;;0.24;96.86;101236.94;4974813;28;20468;-79
2023/01/08 02:13:05;;;;;;;18.63;11.00;;;;;;;0.27;96.87;101237.19;4975738;28;20030;-78
2023/01/08 02:15:45;;;;;;;20.03;10.83;;;;;;;0.25;96.05;101220.03;4915065;29;20047;-79
2023/01/08 02:18:18;;;;;;;20.13;11.33;;;;;;;0.34;95.67;101233.59;4899060;29;20055;-79
2023/01/08 02:20:51;;;;;;;22.83;10.60;;;;;;;0.36;96.10;101237.13;4898911;29;20040;-78
2023/01/08 02:23:37;;;;;;;21.27;11.67;;;;;;;0.28;95.66;101223.75;4915064;29;20125;-79
2023/01/08 02:26:05;;;;;;;19.33;10.70;;;;;;;0.38;95.71;101235.63;4914616;29;20059;-79
2023/01/08 02:28:35;;;;;;;21.57;11.07;;;;;;;0.35;95.11;101227.75;4915000;29;20530;-78
2023/01/08 02:31:01;;;;;;;20.50;10.97;;;;;;;0.24;95.45;101221.69;4914621;29;20040;-78
2023/01/08 02:33:28;;;;;;;21.33;11.30;;;;;;;0.24;95.63;101230.97;4914878;29;20096;-79
2023/01/08 02:36:17;;;;;;;16.17;10.10;;;;;;;0.28;95.26;101233.03;4898811;29;20032;-78
2023/01/08 02:39:05;;;;;;;17.90;10.53;;;;;;;0.20;95.27;101234.88;4914389;29;20033;-79
2023/01/08 02:42:11;;;;;;;17.57;9.63;;;;;;;0.18;95.99;101232.97;4914773;29;20100;-82
2023/01/08 02:45:04;;;;;;;20.73;11.47;;;;;;;0.11;95.69;101219.72;4916097;29;20054;-81
2023/01/08 02:47:37;;;;;;;19.73;10.67;;;;;;;0.21;94.36;101230.69;4933593;29;20083;-82
2023/01/08 02:50:25;;;;;;;16.90;9.40;;;;;;;0.03;93.33;101194.38;4917237;29;20039;-81
2023/01/08 02:53:08;;;;;;;18.57;10.43;;;;;;;0.03;92.72;101223.19;4983334;28;20556;-81
2023/01/08 02:55:37;;;;;;;15.23;9.07;;;;;;;0.03;92.21;101224.84;5010431;28;20059;-81
2023/01/08 02:58:04;;;;;;;18.87;9.67;;;;;;;-0.01;91.98;101228.75;5010490;28;20042;-82
2023/01/08 03:00:31;;;;;;;18.63;9.80;;;;;;;-0.07;92.28;101228.19;5010476;28;20053;-81
2023/01/08 03:03:24;;;;;;;17.20;9.60;;;;;;;-0.04;91.45;101233.53;5010538;28;20034;-80
2023/01/08 03:05:52;;;;;;;17.30;9.60;;;;;;;-0.04;91.31;101218.28;5010648;28;20130;-81
2023/01/08 03:08:18;;;;;;;16.00;9.50;;;;;;;-0.02;90.81;101227.84;5010654;28;20135;-81
2023/01/08 03:10:59;;;;;;;16.13;9.50;;;;;;;-0.14;90.77;101220.75;5010505;28;20113;-81
2023/01/08 03:13:36;;;;;;;15.40;8.30;;;;;;;-0.48;91.22;101210.03;5010342;28;20075;-82
2023/01/08 03:16:07;;;;;;;19.60;9.70;;;;;;;-0.52;91.41;101221.53;5010378;28;20045;-80
2023/01/08 03:18:40;;;;;;;15.93;9.60;;;;;;;-0.37;91.81;101242.38;5010746;28;20061;-80
2023/01/08 03:21:06;;;;;;;15.50;9.50;;;;;;;-0.55;91.91;101199.31;5009408;28;20081;-79
2023/01/08 03:23:34;;;;;;;16.03;9.83;;;;;;;-0.67;91.72;101163.53;5010159;28;20061;-79
2023/01/08 03:26:03;;;;;;;15.80;9.50;;;;;;;-0.15;91.35;101230.00;5022256;28;20107;-78
2023/01/08 03:28:36;;;;;;;11.55;7.30;;;;;;;-0.13;91.59;101242.84;5029878;28;20037;-79
2023/01/08 03:31:02;;;;;;;18.20;10.20;;;;;;;-0.33;91.97;101224.13;5013220;28;20037;-78
2023/01/08 03:33:30;;;;;;;16.13;9.53;;;;;;;-0.79;93.73;101184.34;5031604;28;20084;-79
2023/01/08 03:35:58;;;;;;;18.07;9.87;;;;;;;-0.40;93.92;101254.75;5032357;28;20029;-79
2023/01/08 03:38:28;;;;;;;17.92;10.02;;;;;;;-0.89;92.89;101200.31;5032152;28;20033;-79
2023/01/08 03:41:01;;;;;;;18.55;9.80;;;;;;;-0.96;92.45;101191.22;5032711;28;20083;-79
2023/01/08 03:43:28;;;;;;;21.20;10.60;;;;;;;-0.82;92.64;101231.47;5032562;28;20068;-79
2023/01/08 03:46:00;;;;;;;23.43;10.37;;;;;;;-1.02;92.83;101200.81;5032343;28;20026;-79
2023/01/08 03:48:29;;;;;;;21.07;10.10;;;;;;;-1.02;93.30;101234.66;5030815;28;20095;-79
2023/01/08 03:50:54;;;;;;;17.45;9.23;;;;;;;-0.96;93.78;101252.06;5030894;28;20119;-79
2023/01/08 03:53:20;;;;;;;17.93;11.00;;;;;;;-0.96;94.10;101236.84;5031940;28;20029;-79
2023/01/08 03:55:45;;;;;;;20.43;10.20;;;;;;;-0.89;93.55;101241.75;5031778;28;20090;-79
2023/01/08 03:58:11;;;;;;;17.73;10.27;;;;;;;-0.80;92.76;101248.47;5031941;28;20057;-79
2023/01/08 04:00:36;;;;;;;21.10;10.43;;;;;;;-0.88;93.00;101227.47;5032167;28;20026;-78
2023/01/08 04:03:02;;;;;;;21.37;10.23;;;;;;;-0.92;94.06;101236.41;5031834;28;20033;-79
2023/01/08 04:05:27;;;;;;;16.87;10.17;;;;;;;-0.92;94.08;101238.94;5028806;28;20040;-78
2023/01/08 04:07:56;;;;;;;16.70;9.67;;;;;;;-0.74;94.03;101244.84;5010659;28;20412;-79
2023/01/08 04:10:23;;;;;;;18.92;10.75;;;;;;;-0.72;94.18;101245.03;5010666;28;20483;-79
2023/01/08 04:12:49;;;;;;;17.07;10.53;;;;;;;-0.90;93.98;101190.94;5011787;28;20045;-79
2023/01/08 04:15:14;;;;;;;17.83;11.57;;;;;;;-0.66;94.29;101230.41;5012029;28;20412;-79
2023/01/08 04:17:40;;;;;;;20.60;10.77;;;;;;;-0.68;94.75;101229.34;5010297;28;20385;-78
2023/01/08 04:20:06;;;;;;;19.53;10.67;;;;;;;-0.56;94.97;101237.19;5011651;28;20052;-79
2023/01/08 04:22:31;;;;;;;19.27;10.20;;;;;;;-0.48;94.83;101251.50;5010231;28;20116;-79
2023/01/08 04:24:57;;;;;;;20.93;11.87;;;;;;;-0.46;94.86;101249.09;5010328;28;20481;-80
2023/01/08 04:27:22;;;;;;;17.30;11.27;;;;;;;-0.64;94.93;101216.19;5011811;28;20032;-79
2023/01/08 04:29:48;;;;;;;19.13;9.90;;;;;;;-0.49;94.96;101247.16;5011731;28;20581;-79
2023/01/08 04:32:13;;;;;;;18.07;11.00;;;;;;;-0.58;94.45;101248.84;5009798;28;20473;-79
2023/01/08 04:34:38;;;;;;;19.17;10.83;;;;;;;-0.69;94.17;101241.09;5026768;28;20041;-79
2023/01/08 04:37:04;;;;;;;18.57;11.50;;;;;;;-0.84;93.51;101209.25;5008683;28;20711;-79
2023/01/08 04:39:30;;;;;;;18.03;11.27;;;;;;;-0.80;93.55;101258.59;5011160;28;20128;-78
2023/01/08 04:41:55;;;;;;;15.90;10.20;;;;;;;-0.95;93.44;101256.38;5010921;28;20052;-81
2023/01/08 04:44:21;;;;;;;24.67;11.70;;;;;;;-1.14;93.53;101216.63;5008813;28;20025;-79
2023/01/08 04:46:46;;;;;;;21.53;11.47;;;;;;;-0.88;93.56;101260.41;5008714;28;20485;-76
2023/01/08 04:49:12;;;;;;;24.43;11.70;;;;;;;-0.94;93.71;101260.72;5011934;28;20565;-81
2023/01/08 04:51:38;;;;;;;20.20;10.43;;;;;;;-0.85;93.94;101260.69;5018031;28;20566;-79
2023/01/08 04:54:03;;;;;;;19.07;11.33;;;;;;;-0.84;92.88;101253.22;5008477;28;20173;-79
2023/01/08 04:56:30;;;;;;;17.53;10.97;;;;;;;-0.78;93.08;101262.19;5008443;28;20054;-79
2023/01/08 04:58:55;;;;;;;20.13;11.87;;;;;;;-0.72;92.93;101260.25;4992143;28;20168;-78
2023/01/08 05:01:23;;;;;;;16.50;10.43;;;;;;;-0.72;92.95;101260.25;5008605;28;20117;-78
2023/01/08 05:03:56;;;;;;;18.40;12.00;;;;;;;-0.76;93.29;101259.06;5008413;28;20049;-78
2023/01/08 05:06:22;;;;;;;19.20;10.47;;;;;;;-0.98;93.33;101208.84;4992202;28;20049;-77
2023/01/08 05:08:48;;;;;;;17.83;10.37;;;;;;;-0.69;93.25;101257.97;5010195;28;20081;-76
2023/01/08 05:11:13;;;;;;;18.13;10.07;;;;;;;-0.74;92.15;101260.06;5009891;28;20069;-77
2023/01/08 05:13:39;;;;;;;18.47;10.90;;;;;;;-0.70;92.44;101263.78;5011185;28;20036;-78
2023/01/08 05:16:04;;;;;;;19.60;10.77;;;;;;;-0.69;92.51;101261.41;5010960;28;20061;-77
2023/01/08 05:18:30;;;;;;;19.83;10.07;;;;;;;-0.77;92.14;101269.03;5009815;28;20030;-76
2023/01/08 05:21:03;;;;;;;15.07;10.17;;;;;;;-1.04;92.24;101264.00;5010742;28;20488;-78
2023/01/08 05:23:30;;;;;;;19.43;10.67;;;;;;;-1.09;92.59;101265.22;5027476;28;20034;-79
2023/01/08 05:25:57;;;;;;;18.50;10.17;;;;;;;-1.27;92.79;101282.06;5030764;28;20476;-79
2023/01/08 05:28:23;;;;;;;17.27;10.97;;;;;;;-1.23;93.41;101279.09;5030536;28;20029;-79
2023/01/08 05:30:49;;;;;;;28.40;13.30;;;;;;;-1.11;93.20;101286.06;5030407;28;20040;-79
2023/01/08 05:33:15;;;;;;;21.57;11.30;;;;;;;-1.22;93.11;101277.44;5030482;28;20029;-79
2023/01/08 05:35:40;;;;;;;53.50;43.43;;;;;;;-1.16;93.44;101294.13;5029146;28;20095;-78
2023/01/08 05:38:06;;;;;;;20.43;11.97;;;;;;;-1.08;93.52;101301.59;5029035;28;20033;-78
2023/01/08 05:40:32;;;;;;;20.73;11.33;;;;;;;-1.16;92.94;101285.63;5030533;28;20025;-79
2023/01/08 05:42:58;;;;;;;19.50;11.10;;;;;;;-1.14;92.89;101300.22;5029148;28;20184;-78
2023/01/08 05:45:24;;;;;;;18.63;10.73;;;;;;;-1.21;92.93;101295.34;5032937;28;20065;-81
2023/01/08 05:47:49;;;;;;;17.80;11.03;;;;;;;-1.23;93.51;101306.94;5033131;28;20069;-78
2023/01/08 05:50:15;;;;;;;23.43;12.60;;;;;;;-1.27;93.23;101297.28;5034405;28;20415;-78
2023/01/08 05:52:40;;;;;;;21.03;11.27;;;;;;;-1.44;93.74;101269.41;5033044;28;20108;-79
2023/01/08 05:55:06;;;;;;;19.60;11.40;;;;;;;-1.14;93.43;101314.56;5032940;28;20048;-79
2023/01/08 05:57:31;;;;;;;16.20;11.10;;;;;;;-1.10;93.71;101309.03;5034108;28;20045;-79
2023/01/08 05:59:57;;;;;;;19.83;11.97;;;;;;;-1.06;93.89;101315.28;5034127;28;20534;-82
2023/01/08 06:02:22;;;;;;;22.27;11.20;;;;;;;-1.11;93.74;101298.75;5033970;28;20428;-80
2023/01/08 06:04:48;;;;;;;20.73;11.10;;;;;;;-0.98;93.59;101319.47;5033995;28;20503;-78
2023/01/08 06:07:13;;;;;;;22.17;13.20;;;;;;;-1.03;93.56;101306.34;5034200;28;20026;-78
2023/01/08 06:09:38;;;;;;;21.83;12.90;;;;;;;-0.98;93.69;101310.22;5034101;28;20036;-78
2023/01/08 06:12:04;;;;;;;22.03;13.00;;;;;;;-1.19;94.04;101263.41;5034165;28;20018;-78
2023/01/08 06:14:29;;;;;;;19.33;11.63;;;;;;;-0.89;94.57;101309.31;5033874;28;20025;-77
2023/01/08 06:16:55;;;;;;;21.43;11.53;;;;;;;-1.41;94.03;101254.50;5033619;28;20477;-80
2023/01/08 06:19:21;;;;;;;22.83;12.03;;;;;;;-1.18;94.30;101323.50;5033670;28;20368;-78
2023/01/08 06:21:46;;;;;;;22.40;11.93;;;;;;;-1.16;94.35;101329.63;5032425;28;20035;-79
2023/01/08 06:24:12;;;;;;;17.47;11.30;;;;;;;-1.22;94.98;101334.09;5032076;28;20112;-79
2023/01/08 06:26:37;;;;;;;19.37;11.43;;;;;;;-1.18;95.01;101331.09;5032203;28;20075;-79
2023/01/08 06:29:03;;;;;;;19.80;11.10;;;;;;;-1.21;95.11;101310.53;5033427;28;20033;-78
2023/01/08 06:31:28;;;;;;;18.57;11.73;;;;;;;-0.99;95.38;101332.88;5032277;28;20029;-80
2023/01/08 06:33:54;;;;;;;20.97;12.47;;;;;;;-0.98;95.45;101340.63;5033528;28;20117;-79
2023/01/08 06:36:19;;;;;;;30.07;17.03;;;;;;;-1.04;96.31;101317.22;5033217;28;20099;-79
2023/01/08 06:38:45;;;;;;;26.33;15.37;;;;;;;-0.90;96.73;101333.75;5032675;28;20142;-80
2023/01/08 06:41:10;;;;;;;21.67;13.37;;;;;;;-1.05;96.98;101305.28;5033320;28;20426;-81
2023/01/08 06:43:37;;;;;;;18.00;12.40;;;;;;;-0.80;97.53;101345.69;5033327;28;20033;-77
2023/01/08 06:46:04;;;;;;;18.13;12.30;;;;;;;-0.83;98.02;101342.88;5033252;28;20041;-77
2023/01/08 06:48:30;;;;;;;21.00;13.30;;;;;;;-0.82;98.35;101345.53;5033623;28;20484;-77
2023/01/08 06:50:58;;;;;;;45.73;14.87;;;;;;;-1.02;99.42;101292.94;5033448;28;20078;-78
2023/01/08 06:53:24;;;;;;;20.80;13.40;;;;;;;-0.93;100.00;101307.25;5033244;28;20022;-80
2023/01/08 06:55:55;;;;;;;20.40;12.80;;;;;;;-0.75;100.00;101338.53;5031323;28;20400;-78
2023/01/08 06:58:20;;;;;;;26.17;13.77;;;;;;;-0.73;100.00;101337.06;5033467;28;20110;-79
2023/01/08 07:00:45;;;;;;;26.83;15.73;;;;;;;-0.80;100.00;101330.47;5033233;28;20096;-79
2023/01/08 07:03:11;;;;;;;27.07;16.77;;;;;;;-0.84;100.00;101348.69;5031852;28;20399;-82
2023/01/08 07:05:36;;;;;;;27.37;15.23;;;;;;;-1.26;100.00;101288.91;5032828;28;20519;-80
2023/01/08 07:08:02;;;;;;;26.20;16.23;;;;;;;-1.00;100.00;101344.69;5031645;28;20040;-80
2023/01/08 07:10:30;;;;;;;25.17;15.03;;;;;;;-0.90;100.00;101348.97;5033077;28;20026;-81
2023/01/08 07:12:56;;;;;;;28.83;14.77;;;;;;;-0.80;100.00;101355.81;5032874;28;20037;-81
2023/01/08 07:15:21;;;;;;;24.10;14.80;;;;;;;-0.86;100.00;101330.81;5029843;28;20041;-80
2023/01/08 07:17:46;;;;;;;26.80;15.03;;;;;;;-0.64;100.00;101347.19;5030504;28;20412;-81
2023/01/08 07:20:12;;;;;;;33.60;18.03;;;;;;;-0.61;100.00;101332.25;5007659;28;20396;-80
2023/01/08 07:22:37;;;;;;;26.80;18.63;;;;;;;-0.64;100.00;101304.94;5030211;28;20443;-81
2023/01/08 07:25:04;;;;;;;24.87;14.80;;;;;;;-0.30;100.00;101332.63;5029785;28;20041;-82
2023/01/08 07:27:29;;;;;;;22.50;14.67;;;;;;;-0.18;100.00;101341.38;5030019;28;20068;-81
2023/01/08 07:29:55;;;;;;;24.63;15.80;;;;;;;-0.14;100.00;101342.56;5029938;28;20159;-81
2023/01/08 07:32:21;;;;;;;22.80;14.97;;;;;;;-0.03;100.00;101349.53;5029841;28;20040;-82
2023/01/08 07:34:46;;;;;;;35.17;18.00;;;;;;;0.05;100.00;101341.00;5029863;28;20041;-81
2023/01/08 07:37:12;;;;;;;21.33;14.10;;;;;;;-0.15;100.00;101336.59;5029667;28;20033;-81
2023/01/08 07:39:37;;;;;;;21.60;14.33;;;;;;;-0.57;100.00;101251.53;5029545;28;20040;-81
2023/01/08 07:42:03;;;;;;;25.23;16.00;;;;;;;-0.01;100.00;101312.50;5009861;28;20559;-80
2023/01/08 07:44:28;;;;;;;23.13;15.67;;;;;;;0.25;100.00;101340.31;4993363;28;20128;-80
2023/01/08 07:46:54;;;;;;;24.40;15.33;;;;;;;0.32;100.00;101351.91;4991073;28;20124;-80
2023/01/08 07:49:19;;;;;;;21.47;13.67;;;;;;;0.10;100.00;101306.78;5007819;28;20199;-81
2023/01/08 07:51:48;;;;;;;24.50;14.97;;;;;;;0.43;100.00;101337.66;4992386;28;20088;-81
2023/01/08 07:54:13;;;;;;;26.87;16.43;;;;;;;0.70;100.00;101353.63;5007662;28;20121;-82
2023/01/08 07:56:39;;;;;;;24.83;16.27;;;;;;;0.72;100.00;101344.50;4991185;28;20559;-80
2023/01/08 07:59:04;;;;;;;32.20;19.10;;;;;;;0.92;100.00;101353.94;5009235;28;20460;-78
2023/01/08 08:01:29;;;;;;;27.03;18.43;;;;;;;1.05;100.00;101346.66;5009600;28;20041;-78
2023/01/08 08:03:55;;;;;;;33.23;19.00;;;;;;;0.91;100.00;101349.59;4993026;28;20030;-78
2023/01/08 08:06:20;;;;;;;29.93;18.13;;;;;;;1.13;100.00;101355.88;5008893;28;20408;-79
2023/01/08 08:08:46;;;;;;;27.37;19.13;;;;;;;1.15;100.00;101342.38;5009277;28;20038;-78
2023/01/08 08:11:11;;;;;;;26.10;17.97;;;;;;;1.29;100.00;101352.13;4992984;28;20030;-78
2023/01/08 08:13:41;;;;;;;33.23;20.57;;;;;;;1.43;100.00;101350.78;5009695;28;20110;-80
2023/01/08 08:16:07;;;;;;;33.08;20.98;;;;;;;1.42;100.00;101354.09;5009259;28;20440;-78
2023/01/08 08:18:32;;;;;;;29.43;21.03;;;;;;;1.55;100.00;101346.78;4992956;28;20034;-78
2023/01/08 08:20:58;;;;;;;38.27;24.90;;;;;;;1.72;100.00;101352.44;5009223;28;20037;-77
2023/01/08 08:23:24;;;;;;;33.60;22.50;;;;;;;1.88;100.00;101349.56;4992535;28;20034;-78
2023/01/08 08:25:50;;;;;;;36.97;23.90;;;;;;;2.00;100.00;101348.06;4992690;28;20460;-78
2023/01/08 08:28:17;;;;;;;34.03;23.70;;;;;;;2.16;100.00;101346.84;5009326;28;20091;-78
2023/01/08 08:30:42;;;;;;;34.10;22.60;;;;;;;2.27;100.00;101346.09;4996083;28;20038;-79
2023/01/08 08:33:09;;;;;;;34.40;22.73;;;;;;;2.33;100.00;101338.97;4991840;28;20030;-79
2023/01/08 08:35:35;;;;;;;27.88;20.27;;;;;;;2.42;100.00;101326.09;4992209;28;20289;-82
2023/01/08 08:38:00;;;;;;;29.80;21.50;;;;;;;2.46;100.00;101330.69;5006765;28;20026;-82
2023/01/08 08:40:26;;;;;;;30.05;21.90;;;;;;;2.48;100.00;101331.72;5006946;28;20019;-77
2023/01/08 08:43:00;;;;;;;31.98;21.63;;;;;;;2.55;100.00;101331.44;4990468;28;20026;-83
2023/01/08 08:45:27;;;;;;;32.60;22.00;;;;;;;2.68;100.00;101340.09;4990564;28;20082;-78
2023/01/08 08:47:52;;;;;;;29.30;21.30;;;;;;;2.77;100.00;101340.88;4990566;28;20068;-79
2023/01/08 08:50:18;;;;;;;33.78;23.33;;;;;;;2.90;100.00;101332.56;4990424;28;20450;-81
2023/01/08 08:52:44;;;;;;;33.40;23.38;;;;;;;3.10;100.00;101333.28;4991386;28;20093;-80
2023/01/08 08:55:16;;;;;;;31.90;22.20;;;;;;;3.23;100.00;101339.50;5006754;28;20042;-81
2023/01/08 08:57:42;;;;;;;31.48;22.20;;;;;;;3.26;100.00;101320.97;4991710;28;20058;-80
2023/01/08 09:00:08;;;;;;;29.67;22.30;;;;;;;3.48;100.00;101315.06;5008363;28;20136;-81
2023/01/08 09:02:33;;;;;;;28.48;20.90;;;;;;;3.61;100.00;101312.66;4989075;28;20604;-81
2023/01/08 09:04:59;;;;;;;29.65;20.80;;;;;;;3.61;100.00;101286.25;4988762;28;20038;-80
2023/01/08 09:07:25;;;;;;;28.88;20.73;;;;;;;3.78;100.00;101308.91;4988924;28;20042;-80
2023/01/08 09:09:50;;;;;;;25.83;18.20;;;;;;;3.67;100.00;101285.06;4968980;28;20057;-79
2023/01/08 09:12:16;;;;;;;24.98;18.70;;;;;;;3.98;100.00;101318.09;4953381;28;20532;-78
2023/01/08 09:14:41;;;;;;;27.20;17.92;;;;;;;4.12;100.00;101308.06;4953029;28;20049;-78
2023/01/08 09:17:07;;;;;;;25.02;17.75;;;;;;;4.28;100.00;101305.00;4969475;28;20054;-80
2023/01/08 09:19:32;;;;;;;23.50;18.38;;;;;;;4.37;100.00;101296.38;4952372;28;20047;-80
2023/01/08 09:21:57;;;;;;;24.25;17.55;;;;;;;4.53;100.00;101306.03;4969227;28;20441;-78
2023/01/08 09:24:23;;;;;;;25.65;17.95;;;;;;;4.61;99.14;101298.06;4969211;28;20046;-78
2023/01/08 09:26:48;;;;;;;22.27;17.20;;;;;;;4.61;99.20;101306.66;4953141;28;20043;-79
2023/01/08 09:29:14;;;;;;;21.38;16.58;;;;;;;4.30;98.75;101232.75;4953017;28;20420;-78
2023/01/08 09:31:39;;;;;;;23.38;16.70;;;;;;;4.72;98.87;101293.75;4939225;28;20103;-79
2023/01/08 09:34:05;;;;;;;22.40;17.08;;;;;;;4.75;98.12;101245.34;4963675;28;20043;-79
2023/01/08 09:36:30;;;;;;;23.77;15.82;;;;;;;5.14;97.22;101280.63;4985280;28;20482;-80
2023/01/08 09:38:56;;;;;;;26.85;17.63;;;;;;;5.16;97.11;101261.16;4969563;28;20077;-78
2023/01/08 09:41:32;;;;;;;28.55;18.85;;;;;;;5.36;96.74;101279.63;4984620;28;20497;-77
2023/01/08 09:44:00;;;;;;;26.95;17.75;;;;;;;5.51;96.49;101272.13;4990803;28;20557;-77
2023/01/08 09:46:27;;;;;;;24.85;17.52;;;;;;;5.65;94.89;101267.97;4991232;28;20045;-79
2023/01/08 09:48:57;;;;;;;26.23;17.33;;;;;;;5.77;94.29;101262.78;5006110;28;20057;-79
2023/01/08 09:51:31;;;;;;;24.42;17.73;;;;;;;5.64;93.10;101220.94;4989830;28;20031;-78
2023/01/08 09:53:57;;;;;;;25.92;17.60;;;;;;;5.82;93.32;101241.81;5006185;28;20117;-78
2023/01/08 09:56:23;;;;;;;24.05;17.75;;;;;;;5.91;93.35;101251.81;5005816;28;20134;-78
2023/01/08 09:58:51;;;;;;;25.08;17.73;;;;;;;5.92;93.27;101253.59;4989362;28;20045;-78
2023/01/08 10:01:27;;;;;;;41.33;18.95;;;;;;;6.02;92.96;101250.03;4991120;28;20057;-81
2023/01/08 10:04:14;;;;;;;33.60;18.55;;;;;;;6.17;92.74;101246.69;4989588;28;20027;-80
2023/01/08 10:06:40;;;;;;;35.88;18.70;;;;;;;6.34;91.92;101235.03;4992537;28;20117;-79
2023/01/08 10:09:11;;;;;;;38.47;19.77;;;;;;;6.36;91.15;101212.94;4999094;28;20597;-79
2023/01/08 10:11:43;;;;;;;36.28;18.55;;;;;;;6.56;90.04;101229.63;4999025;28;20116;-83
2023/01/08 10:14:29;;;;;;;34.10;18.35;;;;;;;6.59;89.61;101212.75;4999583;28;20052;-78
2023/01/08 10:17:00;;;;;;;37.03;18.38;;;;;;;6.63;89.03;101217.28;5000593;28;20104;-79
2023/01/08 10:19:25;;;;;;;50.50;18.42;;;;;;;6.73;88.86;101205.03;5017688;28;20045;-79
2023/01/08 10:21:52;;;;;;;28.98;17.75;;;;;;;6.86;88.15;101201.59;4999250;28;20225;-77
2023/01/08 10:24:30;;;;;;;30.13;18.73;;;;;;;7.00;87.36;101200.78;5016509;28;20041;-79
2023/01/08 10:27:05;;;;;;;30.35;17.58;;;;;;;7.06;87.40;101192.59;5017253;28;20037;-77
2023/01/08 10:29:30;;;;;;;24.75;16.13;;;;;;;6.73;87.13;101151.16;5018786;28;20034;-77
2023/01/08 10:31:57;;;;;;;27.63;16.52;;;;;;;7.01;87.05;101186.28;5019882;28;20177;-78
2023/01/08 10:34:54;;;;;;;26.35;17.38;;;;;;;7.18;86.67;101180.53;5003508;28;20041;-79
2023/01/08 10:37:26;;;;;;;24.23;16.95;;;;;;;7.25;86.94;101174.97;4971315;28;20113;-78
2023/01/08 10:39:57;;;;;;;24.92;16.63;;;;;;;7.10;86.28;101138.06;4971382;28;20050;-79
2023/01/08 10:42:23;;;;;;;25.25;17.42;;;;;;;7.31;85.18;101164.19;4971362;28;20039;-81
2023/01/08 10:44:59;;;;;;;39.70;23.17;;;;;;;7.38;85.57;101170.59;4971257;28;20493;-79
2023/01/08 10:47:29;;;;;;;48.78;29.70;;;;;;;7.49;84.97;101173.78;4971012;28;20493;-79
2023/01/08 10:49:55;;;;;;;42.53;25.50;;;;;;;7.57;85.25;101173.47;4970873;28;20575;-79
2023/01/08 10:52:38;;;;;;;33.63;22.23;;;;;;;7.71;84.81;101164.03;4971145;28;20030;-79
2023/01/08 10:55:24;;;;;;;33.60;22.38;;;;;;;7.86;84.83;101158.91;4970935;28;20150;-78
2023/01/08 10:58:00;;;;;;;26.58;18.52;;;;;;;7.77;84.06;101130.09;4953162;28;20138;-78
2023/01/08 11:00:32;;;;;;;27.55;17.85;;;;;;;7.97;83.45;101149.25;4951784;29;20788;-79
2023/01/08 11:03:00;;;;;;;23.00;17.60;;;;;;;8.09;83.76;101146.50;4949800;29;20031;-79
2023/01/08 11:05:37;;;;;;;23.80;16.65;;;;;;;8.16;82.65;101134.88;4935627;29;20031;-79
2023/01/08 11:08:12;;;;;;;22.50;15.93;;;;;;;8.22;82.63;101146.44;4951243;29;20131;-78
2023/01/08 11:10:38;;;;;;;22.25;15.90;;;;;;;7.99;83.53;101090.19;4949690;29;20027;-78
2023/01/08 11:13:06;;;;;;;21.38;15.00;;;;;;;8.25;83.55;101123.44;4953313;28;20049;-79
2023/01/08 11:15:36;;;;;;;18.45;15.10;;;;;;;8.34;82.98;101129.91;5001586;28;20084;-79
2023/01/08 11:18:22;;;;;;;22.50;14.98;;;;;;;8.37;83.33;101132.66;5002105;28;20109;-77